Time;durP1;ratioP1;P1;durP2;ratioP2;P2;SDS_P1;SDS_P2;PMS_P1;PMS_P2;Temp;Humidity;BMP_temperature;BMP_pressure;BME280_temperature;BME280_humidity;BME280_pressure;Samples;Min_cycle;Max_cycle;Signal;HPM_P1;HPM_P2
2022/09/23 00:01:22;;;;;;;;;;;;;;;8.90;64.29;95468.16;5052660;28;1104;-59
2022/09/23 00:03:48;;;;;;;;;;;;;;;8.79;64.56;95466.47;5052612;28;1117;-59
2022/09/23 00:06:18;;;;;;;;;;;;;;;8.60;64.99;95469.16;5052821;28;1044;-59
2022/09/23 00:08:44;;;;;;;;;;;;;;;8.68;64.92;95455.94;5052795;28;981;-59
2022/09/23 00:11:13;;;;;;;;;;;;;;;8.62;64.86;95461.84;5054320;28;1910;-59
2022/09/23 00:13:40;;;;;;;;;;;;;;;8.78;64.30;95458.59;5056213;28;1045;-59
2022/09/23 00:16:08;;;;;;;;;;;;;;;8.73;64.01;95445.72;5056016;28;1092;-59
2022/09/23 00:18:34;;;;;;;;;;;;;;;8.77;64.20;95444.44;5056359;28;1104;-59
2022/09/23 00:21:04;;;;;;;;;;;;;;;8.73;64.34;95448.38;5056025;28;1025;-59
2022/09/23 00:23:30;;;;;;;;;;;;;;;8.60;64.90;95445.16;5056158;28;970;-59
2022/09/23 00:26:00;;;;;;;;;;;;;;;8.61;64.63;95444.16;5052145;28;1181;-59
2022/09/23 00:28:26;;;;;;;;;;;;;;;8.70;64.29;95445.16;5036012;28;1031;-59
2022/09/23 00:30:52;;;;;;;;;;;;;;;8.64;64.50;95446.56;5036097;28;1906;-59
2022/09/23 00:33:18;;;;;;;;;;;;;;;8.71;63.79;95447.69;5036149;28;1098;-59
2022/09/23 00:35:44;;;;;;;;;;;;;;;8.67;64.01;95440.97;5035866;28;1103;-59
2022/09/23 00:38:10;;;;;;;;;;;;;;;8.66;64.01;95444.59;5035859;28;968;-59
2022/09/23 00:40:41;;;;;;;;;;;;;;;8.60;64.72;95448.66;5035809;28;1040;-59
2022/09/23 00:43:09;;;;;;;;;;;;;;;8.62;64.13;95439.69;5035700;28;1029;-59
2022/09/23 00:45:35;;;;;;;;;;;;;;;8.60;63.97;95443.34;5035802;28;1063;-59
2022/09/23 00:48:02;;;;;;;;;;;;;;;8.45;64.29;95450.09;5035834;28;1016;-59
2022/09/23 00:50:36;;;;;;;;;;;;;;;8.38;64.59;95444.47;5035690;28;1993;-59
2022/09/23 00:53:05;;;;;;;;;;;;;;;8.13;65.01;95437.00;5035618;28;964;-59
2022/09/23 00:55:34;;;;;;;;;;;;;;;8.09;65.37;95439.09;5035558;28;1051;-59
2022/09/23 00:58:01;;;;;;;;;;;;;;;8.30;64.68;95446.97;5035680;28;1061;-59
2022/09/23 01:00:27;;;;;;;;;;;;;;;8.36;64.60;95440.22;5035684;28;1014;-59
2022/09/23 01:02:53;;;;;;;;;;;;;;;8.41;64.18;95443.31;5035298;28;1177;-59
2022/09/23 01:05:21;;;;;;;;;;;;;;;8.14;65.14;95436.03;5035362;28;1119;-59
2022/09/23 01:07:48;;;;;;;;;;;;;;;8.16;64.60;95444.72;5035344;28;1095;-59
2022/09/23 01:10:15;;;;;;;;;;;;;;;8.13;64.54;95445.00;5035181;28;1910;-59
2022/09/23 01:12:41;;;;;;;;;;;;;;;8.12;64.74;95437.97;5035528;28;988;-59
2022/09/23 01:15:07;;;;;;;;;;;;;;;8.18;64.72;95445.44;5035045;28;1096;-58
2022/09/23 01:17:38;;;;;;;;;;;;;;;8.16;64.45;95440.22;5035309;28;1216;-59
2022/09/23 01:20:24;;;;;;;;;;;;;;;8.14;64.64;95436.03;5035150;28;989;-59
2022/09/23 01:22:50;;;;;;;;;;;;;;;8.01;65.38;95446.94;5033587;28;1320;-59
2022/09/23 01:25:35;;;;;;;;;;;;;;;8.01;65.17;95442.44;5035224;28;981;-58
2022/09/23 01:28:16;;;;;;;;;;;;;;;8.06;64.83;95449.19;5034804;28;1029;-59
2022/09/23 01:30:51;;;;;;;;;;;;;;;8.03;64.71;95450.31;5034897;28;1981;-59
2022/09/23 01:33:20;;;;;;;;;;;;;;;7.84;65.03;95453.78;5034771;28;1004;-59
2022/09/23 01:35:54;;;;;;;;;;;;;;;7.75;65.14;95446.59;5034998;28;993;-59
2022/09/23 01:38:26;;;;;;;;;;;;;;;7.84;65.13;95456.44;5034863;28;970;-59
2022/09/23 01:41:15;;;;;;;;;;;;;;;7.94;64.28;95454.63;5034671;28;1008;-59
2022/09/23 01:43:47;;;;;;;;;;;;;;;7.56;65.18;95447.41;5034565;28;1041;-59
2022/09/23 01:46:33;;;;;;;;;;;;;;;7.68;65.32;95450.78;5034555;28;1033;-58
2022/09/23 01:49:08;;;;;;;;;;;;;;;8.09;64.19;95448.91;5034217;28;1060;-59
2022/09/23 01:51:40;;;;;;;;;;;;;;;7.98;64.10;95448.03;5034490;28;2099;-59
2022/09/23 01:54:14;;;;;;;;;;;;;;;7.85;64.41;95455.44;5034349;28;1041;-59
2022/09/23 01:57:01;;;;;;;;;;;;;;;7.85;64.15;95452.78;5034509;28;1037;-59
2022/09/23 01:59:38;;;;;;;;;;;;;;;7.80;64.14;95447.88;5034276;28;1094;-59
2022/09/23 02:02:18;;;;;;;;;;;;;;;7.79;64.19;95435.53;5034337;28;1000;-59
2022/09/23 02:04:50;;;;;;;;;;;;;;;7.90;64.43;95455.88;5034074;28;1140;-59
2022/09/23 02:07:24;;;;;;;;;;;;;;;7.92;64.23;95453.94;5034441;28;968;-59
2022/09/23 02:09:56;;;;;;;;;;;;;;;7.84;64.61;95452.94;5034026;28;1221;-59
2022/09/23 02:12:24;;;;;;;;;;;;;;;7.75;65.48;95457.25;5032749;28;1906;-59
2022/09/23 02:14:54;;;;;;;;;;;;;;;7.59;65.66;95469.25;5033923;28;1085;-59
2022/09/23 02:17:28;;;;;;;;;;;;;;;7.62;64.69;95460.16;5032836;28;1045;-59
2022/09/23 02:20:00;;;;;;;;;;;;;;;7.56;64.57;95461.53;5034090;28;1024;-59
2022/09/23 02:22:29;;;;;;;;;;;;;;;7.59;64.77;95468.44;5033947;28;1041;-59
2022/09/23 02:24:56;;;;;;;;;;;;;;;7.65;64.07;95472.38;5033868;28;1026;-59
2022/09/23 02:27:24;;;;;;;;;;;;;;;7.47;64.81;95477.47;5049218;28;1162;-59
2022/09/23 02:30:03;;;;;;;;;;;;;;;7.68;64.59;95464.09;5053615;28;965;-59
2022/09/23 02:32:29;;;;;;;;;;;;;;;7.51;64.96;95462.91;5053775;28;1945;-59
2022/09/23 02:35:04;;;;;;;;;;;;;;;7.30;65.14;95470.97;5053065;28;1111;-59
2022/09/23 02:37:51;;;;;;;;;;;;;;;7.17;65.54;95471.16;5053714;28;958;-59
2022/09/23 02:40:22;;;;;;;;;;;;;;;7.26;65.16;95480.19;5053600;28;1005;-59
2022/09/23 02:43:04;;;;;;;;;;;;;;;7.38;65.32;95476.44;5053632;28;1131;-59
2022/09/23 02:45:32;;;;;;;;;;;;;;;7.35;65.57;95477.56;5053640;28;1068;-59
2022/09/23 02:48:24;;;;;;;;;;;;;;;7.49;65.37;95481.66;5053430;28;969;-59
2022/09/23 02:50:50;;;;;;;;;;;;;;;7.57;65.08;95489.84;5052019;28;1914;-59
2022/09/23 02:53:16;;;;;;;;;;;;;;;7.63;65.28;95481.31;5053576;28;969;-59
2022/09/23 02:55:43;;;;;;;;;;;;;;;7.60;65.21;95476.25;5053354;28;1020;-59
2022/09/23 02:58:11;;;;;;;;;;;;;;;7.76;64.78;95478.44;5053339;28;997;-59
2022/09/23 03:00:56;;;;;;;;;;;;;;;7.82;63.92;95469.88;5053431;28;1054;-59
2022/09/23 03:03:45;;;;;;;;;;;;;;;7.65;64.11;95470.53;5053096;28;1101;-59
2022/09/23 03:06:30;;;;;;;;;;;;;;;7.49;64.34;95481.66;5053329;28;1029;-59
2022/09/23 03:09:00;;;;;;;;;;;;;;;7.48;64.65;95477.34;5053213;28;1065;-59
2022/09/23 03:11:26;;;;;;;;;;;;;;;7.56;64.67;95479.34;5053049;28;1910;-59
2022/09/23 03:13:58;;;;;;;;;;;;;;;7.53;64.61;95485.78;5053361;28;1028;-59
2022/09/23 03:16:42;;;;;;;;;;;;;;;7.49;64.97;95480.84;5053282;28;1015;-59
2022/09/23 03:19:27;;;;;;;;;;;;;;;7.62;65.21;95478.78;5053118;28;961;-59
2022/09/23 03:22:06;;;;;;;;;;;;;;;7.60;64.75;95481.56;5052961;28;958;-59
2022/09/23 03:24:34;;;;;;;;;;;;;;;7.57;64.50;95481.88;5053125;28;1036;-59
2022/09/23 03:27:03;;;;;;;;;;;;;;;7.44;64.95;95486.56;5040572;28;1244;-59
2022/09/23 03:29:31;;;;;;;;;;;;;;;7.33;65.55;95484.84;5033293;28;1007;-59
2022/09/23 03:31:58;;;;;;;;;;;;;;;7.34;65.31;95485.66;5033068;28;1938;-59
2022/09/23 03:34:27;;;;;;;;;;;;;;;7.32;65.35;95485.84;5033085;28;976;-59
2022/09/23 03:36:59;;;;;;;;;;;;;;;7.22;65.38;95493.72;5033151;28;1055;-59
2022/09/23 03:39:39;;;;;;;;;;;;;;;7.19;65.89;95490.50;5033411;28;972;-59
2022/09/23 03:42:25;;;;;;;;;;;;;;;7.32;65.82;95483.16;5033096;28;945;-59
2022/09/23 03:44:53;;;;;;;;;;;;;;;7.25;65.67;95482.00;5032770;28;1665;-59
2022/09/23 03:47:19;;;;;;;;;;;;;;;7.23;65.88;95484.78;5036929;28;1028;-59
2022/09/23 03:49:50;;;;;;;;;;;;;;;7.11;66.28;95490.31;5037004;28;1039;-59
2022/09/23 03:52:17;;;;;;;;;;;;;;;6.89;66.73;95483.34;5036814;28;1922;-59
2022/09/23 03:54:43;;;;;;;;;;;;;;;7.04;66.65;95484.69;5036838;28;957;-59
2022/09/23 03:57:10;;;;;;;;;;;;;;;7.11;66.22;95485.84;5036653;28;1016;-59
2022/09/23 03:59:37;;;;;;;;;;;;;;;7.22;65.97;95492.91;5036540;28;1023;-59
2022/09/23 04:02:04;;;;;;;;;;;;;;;7.16;66.77;95483.63;5036519;28;1091;-59
2022/09/23 04:04:33;;;;;;;;;;;;;;;7.31;66.55;95480.63;5036307;28;1332;-59
2022/09/23 04:06:59;;;;;;;;;;;;;;;7.38;66.01;95490.63;5036416;28;1029;-59
2022/09/23 04:09:25;;;;;;;;;;;;;;;7.25;65.66;95495.31;5036528;28;1040;-59
2022/09/23 04:11:52;;;;;;;;;;;;;;;7.12;66.06;95495.50;5036275;28;1993;-59
2022/09/23 04:14:19;;;;;;;;;;;;;;;7.21;65.85;95483.25;5036273;28;994;-59
2022/09/23 04:16:45;;;;;;;;;;;;;;;7.24;65.48;95488.28;5036277;28;1099;-59
2022/09/23 04:19:12;;;;;;;;;;;;;;;7.12;65.76;95486.69;5036411;28;1012;-59
2022/09/23 04:21:38;;;;;;;;;;;;;;;7.24;65.40;95485.63;5036279;28;996;-59
2022/09/23 04:24:04;;;;;;;;;;;;;;;7.24;65.55;95496.28;5036180;28;1054;-59
2022/09/23 04:26:31;;;;;;;;;;;;;;;7.04;66.14;95487.34;5044405;28;1178;-59
2022/09/23 04:28:57;;;;;;;;;;;;;;;7.07;66.01;95492.41;5055820;28;1007;-59
2022/09/23 04:31:23;;;;;;;;;;;;;;;7.06;65.84;95493.38;5056025;28;1999;-59
2022/09/23 04:33:51;;;;;;;;;;;;;;;7.23;65.48;95495.44;5056025;28;968;-59
2022/09/23 04:36:18;;;;;;;;;;;;;;;7.25;65.18;95497.97;5056011;28;1081;-58
2022/09/23 04:38:44;;;;;;;;;;;;;;;7.22;65.33;95498.22;5055861;28;1036;-59
2022/09/23 04:41:11;;;;;;;;;;;;;;;7.23;65.47;95495.44;5056197;28;955;-59
2022/09/23 04:43:37;;;;;;;;;;;;;;;7.27;65.94;95497.84;5055517;28;1032;-59
2022/09/23 04:46:05;;;;;;;;;;;;;;;7.30;66.05;95497.56;5055779;28;966;-59
2022/09/23 04:48:32;;;;;;;;;;;;;;;7.28;66.14;95499.50;5055799;28;950;-59
2022/09/23 04:51:03;;;;;;;;;;;;;;;7.33;66.02;95503.47;5055493;28;1910;-59
2022/09/23 04:53:29;;;;;;;;;;;;;;;7.23;65.24;95500.75;5055606;28;1061;-61
2022/09/23 04:56:05;;;;;;;;;;;;;;;7.27;65.68;95503.16;5054973;28;926;-58
2022/09/23 04:58:32;;;;;;;;;;;;;;;7.40;65.97;95506.44;5055685;28;1041;-58
2022/09/23 05:01:06;;;;;;;;;;;;;;;7.29;66.33;95514.50;5055447;28;1015;-61
2022/09/23 05:03:34;;;;;;;;;;;;;;;7.20;66.79;95506.31;5055364;28;1121;-59
2022/09/23 05:06:00;;;;;;;;;;;;;;;7.29;67.14;95509.19;5055282;28;1029;-59
2022/09/23 05:08:27;;;;;;;;;;;;;;;7.36;67.41;95510.31;5055229;28;1056;-59
2022/09/23 05:10:57;;;;;;;;;;;;;;;7.48;67.45;95508.44;5054997;28;1993;-59
2022/09/23 05:13:23;;;;;;;;;;;;;;;7.64;67.86;95514.09;5055391;28;1011;-59
2022/09/23 05:15:49;;;;;;;;;;;;;;;7.87;67.41;95516.56;5055127;28;1041;-59
2022/09/23 05:18:15;;;;;;;;;;;;;;;8.07;67.57;95520.13;5055222;28;1056;-59
2022/09/23 05:20:41;;;;;;;;;;;;;;;8.24;67.70;95527.44;5055102;28;984;-59
2022/09/23 05:23:07;;;;;;;;;;;;;;;8.42;67.33;95524.13;5054873;28;1027;-59
2022/09/23 05:25:33;;;;;;;;;;;;;;;8.48;67.29;95532.41;5054721;28;1283;-59
2022/09/23 05:28:00;;;;;;;;;;;;;;;8.53;67.53;95530.16;5035070;28;1039;-59
2022/09/23 05:30:26;;;;;;;;;;;;;;;8.59;67.31;95539.41;5035005;28;1914;-58
2022/09/23 05:32:52;;;;;;;;;;;;;;;8.66;67.77;95531.72;5034936;28;1008;-59
2022/09/23 05:35:18;;;;;;;;;;;;;;;8.56;68.48;95534.38;5034920;28;1028;-59
2022/09/23 05:37:44;;;;;;;;;;;;;;;8.65;68.27;95535.34;5034753;28;987;-59
2022/09/23 05:40:10;;;;;;;;;;;;;;;8.73;68.57;95531.03;5034834;28;1010;-59
2022/09/23 05:42:36;;;;;;;;;;;;;;;8.76;68.58;95529.88;5034914;28;1052;-59
2022/09/23 05:45:02;;;;;;;;;;;;;;;8.91;67.92;95532.97;5034564;28;1092;-59
2022/09/23 05:47:28;;;;;;;;;;;;;;;9.07;67.77;95535.91;5034738;28;1055;-59
2022/09/23 05:49:54;;;;;;;;;;;;;;;9.33;67.19;95536.16;5034457;28;1036;-59
2022/09/23 05:52:20;;;;;;;;;;;;;;;9.52;67.28;95535.25;5034429;28;1910;-58
2022/09/23 05:54:46;;;;;;;;;;;;;;;9.58;67.54;95537.34;5034434;28;1035;-59
2022/09/23 05:57:13;;;;;;;;;;;;;;;9.63;67.27;95544.06;5034645;28;1067;-59
2022/09/23 05:59:39;;;;;;;;;;;;;;;9.74;67.77;95539.38;5034557;28;1025;-59
2022/09/23 06:02:05;;;;;;;;;;;;;;;9.97;67.27;95537.16;5034265;28;1154;-59
2022/09/23 06:04:31;;;;;;;;;;;;;;;10.24;66.20;95538.16;5034054;28;1225;-58
2022/09/23 06:06:57;;;;;;;;;;;;;;;10.50;65.97;95537.47;5034175;28;1107;-59
2022/09/23 06:09:23;;;;;;;;;;;;;;;10.72;64.67;95539.72;5033434;28;1008;-59
2022/09/23 06:11:49;;;;;;;;;;;;;;;10.84;64.21;95534.97;5032783;28;1910;-59
2022/09/23 06:14:15;;;;;;;;;;;;;;;10.96;63.99;95532.06;5034110;28;1961;-58
2022/09/23 06:16:41;;;;;;;;;;;;;;;11.06;64.73;95547.03;5034197;28;1030;-59
2022/09/23 06:19:08;;;;;;;;;;;;;;;11.00;64.56;95547.63;5034043;28;1043;-59
2022/09/23 06:21:36;;;;;;;;;;;;;;;10.83;64.63;95543.16;5033925;28;1052;-63
2022/09/23 06:24:02;;;;;;;;;;;;;;;10.73;65.55;95544.06;5033879;28;1052;-59
2022/09/23 06:26:32;;;;;;;;;;;;;;;10.80;65.34;95541.63;5041778;28;1303;-58
2022/09/23 06:28:58;;;;;;;;;;;;;;;11.04;64.47;95543.69;5053814;28;1060;-58
2022/09/23 06:31:24;;;;;;;;;;;;;;;11.21;64.32;95543.81;5053841;28;1989;-58
2022/09/23 06:33:50;;;;;;;;;;;;;;;11.41;64.54;95544.47;5053730;28;1032;-58
2022/09/23 06:36:16;;;;;;;;;;;;;;;11.56;63.37;95540.22;5053676;28;1084;-59
2022/09/23 06:38:43;;;;;;;;;;;;;;;11.71;63.65;95543.16;5053556;28;1040;-59
2022/09/23 06:41:10;;;;;;;;;;;;;;;11.84;61.38;95548.09;5053675;28;1045;-59
2022/09/23 06:43:36;;;;;;;;;;;;;;;11.94;61.33;95546.16;5053546;28;1285;-59
2022/09/23 06:46:03;;;;;;;;;;;;;;;12.06;60.75;95546.69;5053445;28;1059;-59
2022/09/23 06:48:30;;;;;;;;;;;;;;;12.21;60.94;95537.03;5053536;28;1057;-59
2022/09/23 06:51:01;;;;;;;;;;;;;;;12.29;59.88;95534.41;5053205;28;1985;-59
2022/09/23 06:53:30;;;;;;;;;;;;;;;12.38;61.34;95537.13;5053673;28;1049;-58
2022/09/23 06:56:06;;;;;;;;;;;;;;;12.53;60.09;95535.47;5053482;28;1061;-59
2022/09/23 06:58:33;;;;;;;;;;;;;;;12.76;59.38;95529.50;5053456;28;1051;-58
2022/09/23 07:01:00;;;;;;;;;;;;;;;12.95;59.71;95534.53;5053321;28;1000;-59
2022/09/23 07:03:27;;;;;;;;;;;;;;;13.09;58.39;95528.53;5053041;28;1214;-59
2022/09/23 07:05:53;;;;;;;;;;;;;;;13.27;58.73;95533.72;5053137;28;1161;-58
2022/09/23 07:08:19;;;;;;;;;;;;;;;13.43;57.65;95540.97;5053226;28;1642;-59
2022/09/23 07:10:59;;;;;;;;;;;;;;;13.62;58.34;95542.47;5053321;28;1906;-59
2022/09/23 07:13:25;;;;;;;;;;;;;;;13.83;57.29;95549.97;5053289;28;1012;-58
2022/09/23 07:15:52;;;;;;;;;;;;;;;14.21;56.59;95544.81;5053123;28;950;-58
2022/09/23 07:18:19;;;;;;;;;;;;;;;15.01;54.76;95527.59;5053056;28;1037;-58
2022/09/23 07:20:45;;;;;;;;;;;;;;;15.36;52.78;95525.28;5056389;28;1059;-59
2022/09/23 07:23:11;;;;;;;;;;;;;;;15.31;53.34;95538.47;5057151;28;1024;-58
2022/09/23 07:25:37;;;;;;;;;;;;;;;15.35;53.95;95528.19;5056264;28;1229;-58
2022/09/23 07:28:04;;;;;;;;;;;;;;;15.56;52.74;95530.19;5037071;28;1272;-58
2022/09/23 07:30:30;;;;;;;;;;;;;;;15.83;52.04;95533.31;5037124;28;1909;-59
2022/09/23 07:32:56;;;;;;;;;;;;;;;16.41;50.83;95534.34;5036989;28;1024;-58
2022/09/23 07:35:22;;;;;;;;;;;;;;;16.85;50.28;95536.13;5037328;28;1048;-58
2022/09/23 07:37:49;;;;;;;;;;;;;;;17.30;48.47;95534.13;5036974;28;1036;-59
2022/09/23 07:40:15;;;;;;;;;;;;;;;17.75;46.55;95531.97;5037116;28;1027;-59
2022/09/23 07:42:41;;;;;;;;;;;;;;;18.39;45.27;95538.25;5036924;28;1031;-59
2022/09/23 07:45:07;;;;;;;;;;;;;;;18.72;45.72;95537.56;5036920;28;1000;-59
2022/09/23 07:47:34;;;;;;;;;;;;;;;18.89;45.04;95538.91;5036816;28;1883;-59
2022/09/23 07:50:00;;;;;;;;;;;;;;;19.26;44.49;95528.56;5036951;28;1054;-59
2022/09/23 07:52:27;;;;;;;;;;;;;;;19.98;42.34;95531.53;5036867;28;1984;-59
2022/09/23 07:54:53;;;;;;;;;;;;;;;21.08;41.58;95540.81;5036776;28;1122;-59
2022/09/23 07:57:19;;;;;;;;;;;;;;;22.10;38.73;95543.47;5036766;28;1000;-59
2022/09/23 07:59:45;;;;;;;;;;;;;;;22.58;36.80;95557.25;5036604;28;1040;-59
2022/09/23 08:02:14;;;;;;;;;;;;;;;23.18;36.38;95553.00;5036441;28;1060;-59
2022/09/23 08:04:40;;;;;;;;;;;;;;;29.55;27.88;95596.84;5036402;28;1317;-59
2022/09/23 08:07:06;;;;;;;;;;;;;;;33.85;22.85;95623.63;5036387;28;1045;-59
2022/09/23 08:09:37;;;;;;;;;;;;;;;35.13;21.13;95634.69;5036633;28;976;-59
2022/09/23 08:12:03;;;;;;;;;;;;;;;32.36;23.12;95618.75;5036343;28;1962;-59
2022/09/23 08:14:29;;;;;;;;;;;;;;;29.28;26.75;95595.09;5036361;28;1000;-60
2022/09/23 08:16:56;;;;;;;;;;;;;;;28.67;26.95;95589.22;5036470;28;1007;-59
2022/09/23 08:19:22;;;;;;;;;;;;;;;28.03;27.72;95583.47;5036525;28;1174;-59
2022/09/23 08:21:48;;;;;;;;;;;;;;;28.49;26.47;95582.19;5036295;28;976;-59
2022/09/23 08:40:05;;;;;;;;;;;;;;;29.41;24.18;95588.25;5823788;22;3545;-56
2022/09/23 08:42:32;;;;;;;;;;;;;;;27.90;26.77;95570.16;5035744;28;1327;-56
2022/09/23 08:45:01;;;;;;;;;;;;;;;26.02;28.40;95568.16;5035880;28;1354;-56
2022/09/23 08:47:34;;;;;;;;;;;;;;;25.18;29.01;95551.50;5035626;28;972;-56
2022/09/23 08:50:03;;;;;;;;;;;;;;;26.89;27.29;95560.44;5035788;28;1320;-56
2022/09/23 08:52:38;;;;;;;;;;;;;;;28.75;25.76;95566.72;5035600;28;1907;-56
2022/09/23 08:55:05;;;;;;;;;;;;;;;31.24;22.77;95580.31;5034609;28;1656;-56
2022/09/23 08:57:54;;;;;;;;;;;;;;;32.38;21.94;95586.88;5035723;28;1351;-56
2022/09/23 09:00:22;;;;;;;;;;;;;;;33.08;20.90;95585.69;5016470;28;1143;-56
2022/09/23 09:02:49;;;;;;;;;;;;;;;32.46;21.08;95590.97;5034292;28;1118;-56
2022/09/23 09:05:18;;;;;;;;;;;;;;;29.82;23.74;95584.81;5034257;28;1060;-56
2022/09/23 09:07:45;;;;;;;;;;;;;;;26.90;26.68;95564.84;5035642;28;984;-55
2022/09/23 09:10:18;;;;;;;;;;;;;;;24.31;30.02;95548.53;5035279;28;1089;-55
2022/09/23 09:12:47;;;;;;;;;;;;;;;22.52;32.75;95535.53;5035377;28;1914;-55
2022/09/23 09:15:14;;;;;;;;;;;;;;;21.72;34.38;95520.78;5035318;28;1324;-55
2022/09/23 09:17:47;;;;;;;;;;;;;;;21.18;34.54;95509.41;5035197;28;1027;-55
2022/09/23 09:20:17;;;;;;;;;;;;;;;20.63;35.05;95512.59;5035434;28;989;-55
2022/09/23 09:22:47;;;;;;;;;;;;;;;20.39;36.00;95505.97;5035327;28;995;-56
2022/09/23 09:25:18;;;;;;;;;;;;;;;20.20;34.79;95501.44;5035233;28;1037;-55
2022/09/23 09:27:44;;;;;;;;;;;;;;;19.81;36.30;95497.75;5035103;28;1090;-55
2022/09/23 09:30:13;;;;;;;;;;;;;;;19.64;36.61;95497.31;5034951;28;1063;-55
2022/09/23 09:32:46;;;;;;;;;;;;;;;19.72;36.45;95493.56;5034843;28;1992;-55
2022/09/23 09:35:33;;;;;;;;;;;;;;;19.77;37.63;95488.34;5035113;28;976;-55
2022/09/23 09:38:00;;;;;;;;;;;;;;;19.75;37.51;95494.00;5027966;28;1136;-55
2022/09/23 09:40:26;;;;;;;;;;;;;;;19.73;37.55;95490.66;5034792;28;1086;-56
2022/09/23 09:42:52;;;;;;;;;;;;;;;19.69;37.05;95490.22;5033724;28;996;-55
2022/09/23 09:45:22;;;;;;;;;;;;;;;19.62;35.53;95488.56;5034852;28;972;-55
2022/09/23 09:47:55;;;;;;;;;;;;;;;19.53;37.84;95490.63;5034739;28;967;-55
2022/09/23 09:50:40;;;;;;;;;;;;;;;19.50;37.74;95491.91;5034604;28;1914;-55
2022/09/23 09:53:19;;;;;;;;;;;;;;;19.54;38.04;95489.59;5034531;28;1058;-55
2022/09/23 09:55:47;;;;;;;;;;;;;;;19.50;36.84;95486.47;5034506;28;984;-55
2022/09/23 09:58:15;;;;;;;;;;;;;;;19.42;36.31;95480.41;5034397;28;1012;-55
2022/09/23 10:00:43;;;;;;;;;;;;;;;19.31;37.91;95484.56;5034582;28;1027;-55
2022/09/23 10:03:12;;;;;;;;;;;;;;;19.40;38.24;95475.19;5035689;28;1033;-54
2022/09/23 10:05:44;;;;;;;;;;;;;;;19.41;37.96;95476.06;5034466;28;2056;-55
2022/09/23 10:08:31;;;;;;;;;;;;;;;19.46;37.52;95478.94;5034150;28;966;-55
2022/09/23 10:11:03;;;;;;;;;;;;;;;19.39;35.87;95483.53;5033995;28;2001;-55
2022/09/23 10:13:30;;;;;;;;;;;;;;;19.21;35.12;95482.28;5034190;28;1106;-55
2022/09/23 10:15:57;;;;;;;;;;;;;;;19.23;36.76;95482.91;5034020;28;1064;-55
2022/09/23 10:18:23;;;;;;;;;;;;;;;19.37;36.97;95472.91;5034021;28;1048;-55
2022/09/23 10:20:49;;;;;;;;;;;;;;;19.56;37.55;95479.38;5033895;28;1094;-55
2022/09/23 10:23:20;;;;;;;;;;;;;;;19.66;37.31;95478.97;5034165;28;1007;-55
2022/09/23 10:25:57;;;;;;;;;;;;;;;19.69;36.16;95467.66;5033999;28;1150;-55
2022/09/23 10:28:35;;;;;;;;;;;;;;;19.79;37.19;95467.28;5034026;28;1023;-55
2022/09/23 10:31:04;;;;;;;;;;;;;;;19.99;37.40;95467.25;5033645;28;1910;-55
2022/09/23 10:33:30;;;;;;;;;;;;;;;20.11;37.31;95470.13;5033875;28;1036;-55
2022/09/23 10:35:56;;;;;;;;;;;;;;;20.20;36.87;95468.84;5033874;28;1311;-55
2022/09/23 10:38:22;;;;;;;;;;;;;;;20.26;36.58;95471.56;5033804;28;1094;-55
2022/09/23 10:46:44;;;;;;;;;;;;;;;20.01;36.51;95462.44;5026309;28;1051;-56
2022/09/23 10:49:22;;;;;;;;;;;;;;;19.75;36.75;95460.59;5033665;28;1110;-56
2022/09/23 10:52:07;;;;;;;;;;;;;;;19.75;36.76;95455.16;5033457;28;1936;-56
2022/09/23 10:54:51;;;;;;;;;;;;;;;19.69;36.70;95457.66;5033177;28;1091;-55
2022/09/23 11:00:17;;;;;;;;;;;;;;;19.48;37.76;95444.31;5033507;28;1016;-56
2022/09/23 11:02:55;;;;;;;;;;;;;;;19.08;37.89;95441.59;5033752;28;1040;-55
2022/09/23 11:05:32;;;;;;;;;;;;;;;18.79;38.16;95449.03;5033657;28;1033;-56
2022/09/23 11:08:17;;;;;;;;;;;;;;;18.80;38.50;95442.63;5033477;28;1050;-55
2022/09/23 11:11:02;;;;;;;;;;;;;;;18.95;38.45;95434.28;5033200;28;1907;-55
2022/09/23 11:13:34;;;;;;;;;;;;;;;19.09;38.74;95424.31;5033341;28;1019;-55
2022/09/23 11:16:19;;;;;;;;;;;;;;;18.96;38.68;95430.53;5033222;28;1215;-55
2022/09/23 11:18:57;;;;;;;;;;;;;;;19.00;38.66;95430.97;5033371;28;1052;-55
2022/09/23 11:21:43;;;;;;;;;;;;;;;19.09;38.48;95424.31;5033527;28;976;-55
2022/09/23 11:24:26;;;;;;;;;;;;;;;19.12;38.41;95415.75;5033305;28;1008;-55
2022/09/23 11:27:02;;;;;;;;;;;;;;;19.22;38.38;95415.38;5033161;28;1123;-55
2022/09/23 11:29:28;;;;;;;;;;;;;;;19.22;37.73;95424.31;5033150;28;1060;-55
2022/09/23 11:32:06;;;;;;;;;;;;;;;19.11;37.37;95416.81;5033242;28;1911;-55
2022/09/23 11:34:38;;;;;;;;;;;;;;;19.23;37.55;95415.13;5033300;28;940;-55
2022/09/23 11:37:12;;;;;;;;;;;;;;;19.28;38.27;95412.63;5033194;28;1036;-55
2022/09/23 11:39:42;;;;;;;;;;;;;;;19.30;37.28;95404.28;5033641;28;1023;-55
2022/09/23 11:42:14;;;;;;;;;;;;;;;19.31;37.49;95416.78;5032857;28;1115;-55
2022/09/23 11:44:48;;;;;;;;;;;;;;;19.39;37.12;95413.03;5033112;28;1083;-55
2022/09/23 11:47:25;;;;;;;;;;;;;;;19.50;37.80;95413.25;5033240;28;1044;-55
2022/09/23 11:49:57;;;;;;;;;;;;;;;19.56;36.39;95425.13;5031802;28;1253;-55
2022/09/23 11:52:32;;;;;;;;;;;;;;;19.31;37.94;95416.78;5032922;28;1979;-55
2022/09/23 11:55:15;;;;;;;;;;;;;;;19.17;37.69;95407.84;5033146;28;1231;-55
2022/09/23 11:57:41;;;;;;;;;;;;;;;19.15;36.89;95412.63;5033145;28;1121;-55
2022/09/23 12:00:27;;;;;;;;;;;;;;;19.13;37.45;95406.59;5032938;28;966;-54
2022/09/23 12:03:00;;;;;;;;;;;;;;;18.78;36.94;95412.16;5032669;28;1141;-55
2022/09/23 12:05:29;;;;;;;;;;;;;;;18.69;37.76;95405.28;5032947;28;1044;-55
2022/09/23 12:08:11;;;;;;;;;;;;;;;18.71;37.67;95403.19;5035882;28;1076;-55
2022/09/23 12:10:56;;;;;;;;;;;;;;;18.82;37.29;95401.75;5036535;28;1914;-55
2022/09/23 12:13:29;;;;;;;;;;;;;;;18.86;36.32;95405.75;5036382;28;1036;-55
2022/09/23 12:15:55;;;;;;;;;;;;;;;18.99;37.47;95394.06;5036785;28;1054;-55
2022/09/23 12:18:34;;;;;;;;;;;;;;;19.07;38.72;95400.13;5036544;28;980;-54
2022/09/23 12:21:20;;;;;;;;;;;;;;;19.03;37.48;95392.63;5036632;28;1043;-55
2022/09/23 12:23:46;;;;;;;;;;;;;;;18.89;37.52;95395.34;5037737;28;1974;-54
2022/09/23 12:26:18;;;;;;;;;;;;;;;18.71;37.88;95386.94;5036291;28;1047;-54
2022/09/23 12:28:45;;;;;;;;;;;;;;;18.53;38.26;95387.50;5036383;28;1036;-54
2022/09/23 12:31:13;;;;;;;;;;;;;;;18.36;39.42;95384.34;5036147;28;1914;-55
2022/09/23 12:33:39;;;;;;;;;;;;;;;18.48;39.49;95379.19;5036218;28;959;-54
2022/09/23 12:36:06;;;;;;;;;;;;;;;18.61;38.12;95384.63;5036428;28;1003;-55
2022/09/23 12:38:34;;;;;;;;;;;;;;;18.54;38.30;95384.59;5035941;28;1055;-55
2022/09/23 12:41:00;;;;;;;;;;;;;;;18.50;38.89;95377.13;5035715;28;1845;-55
2022/09/23 12:43:30;;;;;;;;;;;;;;;18.46;38.76;95386.69;5035903;28;1035;-55
2022/09/23 12:46:16;;;;;;;;;;;;;;;18.54;38.93;95387.31;5035926;28;1082;-55
2022/09/23 12:48:43;;;;;;;;;;;;;;;18.68;38.21;95388.16;5035715;28;1264;-55
2022/09/23 12:51:17;;;;;;;;;;;;;;;18.66;39.28;95375.88;5035564;28;1968;-55
2022/09/23 12:53:53;;;;;;;;;;;;;;;18.62;38.08;95380.88;5036091;28;949;-55
2022/09/23 12:56:26;;;;;;;;;;;;;;;18.62;38.63;95380.03;5035878;28;1079;-55
2022/09/23 12:58:56;;;;;;;;;;;;;;;18.59;37.98;95389.44;5035619;28;1045;-55
2022/09/23 13:01:23;;;;;;;;;;;;;;;18.53;38.39;95379.38;5035555;28;1051;-55
2022/09/23 13:06:51;;;;;;;;;;;;;;;18.74;38.43;95378.38;5019728;28;1463;-55
2022/09/23 13:09:20;;;;;;;;;;;;;;;18.81;38.43;95381.97;5035518;28;1035;-55
2022/09/23 13:11:47;;;;;;;;;;;;;;;18.84;38.56;95378.88;5035238;28;1918;-55
2022/09/23 13:14:18;;;;;;;;;;;;;;;18.87;38.94;95375.72;5035293;28;956;-55
2022/09/23 13:16:45;;;;;;;;;;;;;;;18.83;38.54;95369.06;5035276;28;1040;-54
2022/09/23 13:19:30;;;;;;;;;;;;;;;18.87;38.53;95377.59;5035069;28;1051;-55
2022/09/23 13:21:56;;;;;;;;;;;;;;;18.90;39.02;95379.91;5035137;28;917;-55
2022/09/23 13:24:23;;;;;;;;;;;;;;;18.91;38.67;95370.72;5035045;28;1064;-55
2022/09/23 13:26:53;;;;;;;;;;;;;;;18.80;38.52;95371.31;5035220;28;1033;-55
2022/09/23 13:29:25;;;;;;;;;;;;;;;18.69;38.78;95375.47;5035230;28;1044;-55
2022/09/23 13:31:52;;;;;;;;;;;;;;;18.67;39.39;95364.84;5034988;28;1914;-55
2022/09/23 13:34:20;;;;;;;;;;;;;;;18.73;39.12;95374.03;5035070;28;957;-55
2022/09/23 13:36:46;;;;;;;;;;;;;;;18.78;39.16;95368.84;5034967;28;976;-55
2022/09/23 13:39:21;;;;;;;;;;;;;;;18.79;37.92;95369.66;5034726;28;1040;-54
2022/09/23 13:41:48;;;;;;;;;;;;;;;18.78;38.80;95370.69;5034709;28;1110;-55
2022/09/23 13:44:17;;;;;;;;;;;;;;;18.77;38.66;95369.84;5034711;28;1020;-55
2022/09/23 13:46:45;;;;;;;;;;;;;;;18.79;37.52;95369.66;5034807;28;991;-55